Nearby METAR Reports

 

KCRE - North Myrtle Bea, South Carolina, USA
Distance from station: SW 7mi, 11km
Updated: Sun, 21-Oct-2018 3:53pm EDT
Clear
Clear
 Wind from N
Wind: N 12 mph , 19 km/h, Gust: 20 mph , 31 km/h
Temperature: 63°F , 17°C
Dew Point: 30°F , -1°C
Humidity: 30%
Barometer: 30.14 inHg , 1020.7 hPa
Clouds: Clear
Visibility: 10 miles , 16 km
2018/10/21 19:53 KCRE 211953Z 36010G17KT 10SM CLR 17/M01 A3014 RMK AO1 SLP207 T01721006
KMYR - Myrtle Beach, South Carolina, USA
Distance from station: SW 22mi, 36km
Updated: Sun, 21-Oct-2018 3:56pm EDT
Clear
Clear
 Wind from N
Wind: N 16 mph , 26 km/h
Temperature: 63°F , 17°C
Dew Point: 30°F , -1°C
Humidity: 30%
Barometer: 30.16 inHg , 1021.3 hPa
Clouds: Clear
Visibility: 10 miles , 16 km
2018/10/21 19:56 KMYR 211956Z 36014KT 10SM CLR 17/M01 A3016 RMK AO2 SLP212 T01721011
 
KCPC - Whiteville, North Carolina, USA
Distance from station: N 28mi, 45km
Updated: Sun, 21-Oct-2018 4:15pm EDT
Clear
Clear
 Wind from N
Wind: N 7 mph , 11 km/h
Temperature: 61°F , 16°C
Dew Point: 30°F , -1°C
Humidity: 31%
Barometer: 30.15 inHg , 1021 hPa
Clouds: Clear
Visibility: 10 miles , 16 km
2018/10/21 20:15 KCPC 212015Z AUTO 01006KT 10SM CLR 16/M01 A3015 RMK AO2 T01631010
KHYW - Conway-Horry Cty, South Carolina, USA
Distance from station: W 28mi, 45km
Updated: Sun, 21-Oct-2018 4:15pm EDT
Clear
Clear
 Wind from N
Wind: N 5 mph , 7 km/h
Temperature: 61°F , 16°C
Dew Point: 32°F , 0°C
Humidity: 34%
Barometer: 30.16 inHg , 1021.3 hPa
Clouds: Clear
Visibility: 7 miles , 11 km
2018/10/21 20:15 KHYW 212015Z AUTO 36004KT 7SM CLR 16/00 A3016 RMK AO2
 
KSUT - Southport, North Carolina, USA
Distance from station: E 32mi, 51km
Updated: Sun, 21-Oct-2018 4:25pm EDT
Clear
Clear
 Wind from N
Wind: N 12 mph , 19 km/h, Gust: 17 mph , 28 km/h
Temperature: 63°F , 17°C
Dew Point: 30°F , -1°C
Humidity: 30%
Barometer: 30.14 inHg , 1020.7 hPa
Clouds: Clear
Visibility: 10 miles , 16 km
2018/10/21 20:25 KSUT 212025Z AUTO 36010G15KT 10SM CLR 17/M01 A3014 RMK AO2 T01651011
KMAO - Marion, South Carolina, USA
Distance from station: WNW 45mi, 73km
Updated: Sun, 21-Oct-2018 4:35pm EDT
Clear
Clear
 Wind from N
Wind: N 7 mph , 11 km/h
Temperature: 61°F , 16°C
Dew Point: 32°F , 0°C
Humidity: 34%
Barometer: 30.17 inHg , 1021.7 hPa
Clouds: Clear
Visibility: 10 miles , 16 km
2018/10/21 20:35 KMAO 212035Z AUTO 36006KT 10SM CLR 16/00 A3017 RMK AO2
 
KEYF - Elizabethtown, North Carolina, USA
Distance from station: N 49mi, 79km
Updated: Sun, 21-Oct-2018 4:20pm EDT
Clear
Clear
 Wind from N
Wind: N 9 mph , 15 km/h
Temperature: 61°F , 16°C
Dew Point: 32°F , 0°C
Humidity: 34%
Barometer: 30.16 inHg , 1021.3 hPa
Clouds: Clear
Visibility: 10 miles , 16 km
2018/10/21 20:20 KEYF 212020Z AUTO 35008KT 10SM CLR 16/00 A3016 RMK AO2 T01571003
KILM - Wilmington, North Carolina, USA
Distance from station: ENE 49mi, 79km
Updated: Sun, 21-Oct-2018 3:53pm EDT
Clear
Clear
 Wind from N
Wind: N 12 mph , 19 km/h, Gust: 22 mph , 35 km/h
Temperature: 63°F , 17°C
Dew Point: 30°F , -1°C
Humidity: 30%
Barometer: 30.13 inHg , 1020.3 hPa
Clouds: Clear
Visibility: 10 miles , 16 km
2018/10/21 19:53 KILM 211953Z 36010G19KT 10SM CLR 17/M01 A3013 RMK AO2 SLP203 T01671006